Time;durP1;ratioP1;P1;durP2;ratioP2;P2;SDS_P1;SDS_P2;PMS_P1;PMS_P2;Temp;Humidity;BMP_temperature;BMP_pressure;BME280_temperature;BME280_humidity;BME280_pressure;Samples;Min_cycle;Max_cycle;Signal;HPM_P1;HPM_P2
2022/10/27 00:00:17;;;;;;;11.43;5.38;;;;;;;22.86;70.58;99626.06;2075481;28;20132;-51
2022/10/27 00:01:17;;;;;;;12.75;5.93;;;;;;;22.87;70.75;99625.03;2073952;28;20044;-53
2022/10/27 00:02:21;;;;;;;11.10;5.13;;;;;;;22.88;70.68;99623.97;2075717;28;20659;-53
2022/10/27 00:03:21;;;;;;;9.75;5.82;;;;;;;22.87;70.59;99622.31;2072937;28;21009;-52
2022/10/27 00:04:23;;;;;;;11.18;5.70;;;;;;;22.86;70.70;99623.34;2075704;28;20060;-52
2022/10/27 00:05:24;;;;;;;10.60;4.97;;;;;;;22.85;70.69;99627.09;2074170;28;20042;-52
2022/10/27 00:06:26;;;;;;;10.38;5.00;;;;;;;22.86;70.58;99617.94;2073497;28;20049;-53
2022/10/27 00:07:27;;;;;;;11.25;5.07;;;;;;;22.87;70.64;99618.75;2073570;28;20042;-54
2022/10/27 00:08:28;;;;;;;10.60;5.15;;;;;;;22.86;70.63;99623.34;2074695;28;20060;-52
2022/10/27 00:09:29;;;;;;;7.78;4.85;;;;;;;22.87;70.48;99625.03;2075179;28;20049;-54
2022/10/27 00:10:31;;;;;;;7.45;5.78;;;;;;;22.85;70.53;99619.00;2076121;28;20551;-51
2022/10/27 00:11:32;;;;;;;15.60;5.88;;;;;;;22.87;70.48;99621.47;2074098;28;20041;-51
2022/10/27 00:12:34;;;;;;;10.02;5.65;;;;;;;22.86;70.45;99617.94;2074940;28;20041;-51
2022/10/27 00:13:36;;;;;;;14.30;5.63;;;;;;;22.87;70.51;99614.22;2074326;28;20041;-52
2022/10/27 00:14:37;;;;;;;14.45;5.28;;;;;;;22.87;70.52;99616.91;2075959;28;20045;-53
2022/10/27 00:15:39;;;;;;;12.13;6.20;;;;;;;22.85;70.50;99615.47;2074398;28;20562;-53
2022/10/27 00:16:40;;;;;;;13.43;5.25;;;;;;;22.87;70.27;99618.75;2072061;28;20052;-53
2022/10/27 00:17:43;;;;;;;10.45;6.10;;;;;;;22.87;70.45;99619.63;2073027;28;20049;-55
2022/10/27 00:18:45;;;;;;;8.07;5.13;;;;;;;22.86;70.33;99615.22;2074419;28;20088;-52
2022/10/27 00:19:47;;;;;;;9.88;5.50;;;;;;;22.87;70.29;99616.91;2074184;28;20045;-53
2022/10/27 00:20:56;;;;;;;11.30;5.28;;;;;;;22.86;70.14;99619.81;2075636;28;20850;-52
2022/10/27 00:21:58;;;;;;;16.38;5.88;;;;;;;22.86;70.58;99617.94;2074270;28;20053;-52
2022/10/27 00:22:59;;;;;;;16.25;6.53;;;;;;;22.86;70.38;99609.81;2074771;28;20141;-52
2022/10/27 00:24:00;;;;;;;13.32;5.43;;;;;;;22.86;70.38;99612.53;2073137;28;20068;-52
2022/10/27 00:25:01;;;;;;;10.80;5.45;;;;;;;22.86;70.32;99623.34;2073716;28;20065;-50
2022/10/27 00:26:04;;;;;;;8.23;4.85;;;;;;;22.88;70.25;99615.03;2073027;28;20264;-49
2022/10/27 00:27:05;;;;;;;14.82;5.78;;;;;;;22.86;70.21;99617.94;2069818;28;20041;-49
2022/10/27 00:28:07;;;;;;;17.85;5.38;;;;;;;22.86;70.17;99619.81;2073995;28;20060;-50
2022/10/27 00:29:07;;;;;;;9.75;4.82;;;;;;;22.87;70.27;99622.31;2074701;28;20089;-49
2022/10/27 00:30:10;;;;;;;7.78;5.18;;;;;;;22.86;70.27;99619.81;2073273;28;20045;-50
2022/10/27 00:31:13;;;;;;;12.48;5.35;;;;;;;22.87;70.25;99619.63;2074905;28;20061;-49
2022/10/27 00:32:15;;;;;;;14.20;5.43;;;;;;;22.85;70.25;99616.28;2075116;28;20045;-50
2022/10/27 00:33:17;;;;;;;10.27;5.22;;;;;;;22.86;70.20;99617.94;2072763;28;20056;-51
2022/10/27 00:34:19;;;;;;;8.00;4.85;;;;;;;22.86;70.20;99615.22;2074555;28;20132;-50
2022/10/27 00:35:20;;;;;;;10.95;5.00;;;;;;;22.87;70.19;99621.47;2074842;28;20042;-50
2022/10/27 00:36:23;;;;;;;14.38;6.60;;;;;;;22.87;70.08;99618.75;2075411;28;20049;-49
2022/10/27 00:37:24;;;;;;;6.47;4.75;;;;;;;22.86;70.19;99617.09;2075735;28;20480;-50
2022/10/27 00:38:26;;;;;;;13.65;6.72;;;;;;;22.86;70.03;99623.34;2065223;28;20045;-50
2022/10/27 00:39:27;;;;;;;11.38;5.95;;;;;;;22.86;70.10;99626.06;2066370;28;20057;-49
2022/10/27 00:40:28;;;;;;;12.43;5.97;;;;;;;22.85;70.30;99627.09;2065299;28;20412;-52
2022/10/27 00:41:33;;;;;;;13.98;5.72;;;;;;;22.85;70.18;99627.09;2065088;28;20158;-53
2022/10/27 00:42:34;;;;;;;12.27;6.70;;;;;;;22.84;70.15;99630.81;2065682;28;20054;-50
2022/10/27 00:43:38;;;;;;;11.15;5.60;;;;;;;22.85;70.02;99637.09;2065627;28;20768;-52
2022/10/27 00:44:40;;;;;;;9.07;4.78;;;;;;;22.85;70.10;99629.81;2070118;28;20056;-51
2022/10/27 00:45:42;;;;;;;11.27;5.65;;;;;;;22.86;69.92;99627.94;2066377;28;20049;-56
2022/10/27 00:46:46;;;;;;;9.70;5.75;;;;;;;22.85;70.22;99629.81;2067426;28;20061;-51
2022/10/27 00:47:48;;;;;;;10.25;4.80;;;;;;;22.83;70.07;99631.88;2065126;28;20049;-51
2022/10/27 00:48:53;;;;;;;10.55;5.28;;;;;;;22.83;70.13;99633.75;2067508;28;20061;-52
2022/10/27 00:50:01;;;;;;;11.00;5.20;;;;;;;22.85;70.12;99634.38;2067443;28;20045;-51
2022/10/27 00:51:03;;;;;;;9.75;5.15;;;;;;;22.83;70.35;99634.59;2064685;28;20061;-53
2022/10/27 00:52:10;;;;;;;7.75;4.85;;;;;;;22.83;70.17;99637.28;2064234;28;20049;-50
2022/10/27 00:53:11;;;;;;;12.48;5.13;;;;;;;22.83;70.33;99634.59;2065298;28;21055;-53
2022/10/27 00:54:14;;;;;;;12.43;4.65;;;;;;;22.83;70.11;99631.88;2065905;28;20049;-52
2022/10/27 00:55:19;;;;;;;9.13;4.85;;;;;;;22.83;70.14;99629.16;2066491;28;20045;-51
2022/10/27 00:56:22;;;;;;;13.80;6.35;;;;;;;22.83;70.25;99637.28;2064703;28;20092;-52
2022/10/27 00:57:24;;;;;;;11.38;5.82;;;;;;;22.83;70.27;99640.00;2062530;28;20669;-52
2022/10/27 00:58:26;;;;;;;12.40;4.60;;;;;;;22.82;70.31;99630.22;2066840;28;20081;-51
2022/10/27 00:59:27;;;;;;;11.23;5.03;;;;;;;22.83;70.29;99629.16;2066833;28;20053;-52
2022/10/27 01:00:28;;;;;;;13.60;4.50;;;;;;;22.83;70.36;99631.06;2064775;28;20045;-54
2022/10/27 01:01:30;;;;;;;10.40;4.93;;;;;;;22.84;70.12;99633.53;2066240;28;20497;-50
2022/10/27 01:02:33;;;;;;;10.15;4.55;;;;;;;22.84;70.13;99630.00;2066144;28;20041;-51
2022/10/27 01:03:34;;;;;;;7.97;4.53;;;;;;;22.84;70.31;99635.41;2066948;28;20087;-54
2022/10/27 01:04:42;;;;;;;11.07;5.65;;;;;;;22.83;70.31;99631.88;2064636;28;20545;-52
2022/10/27 01:05:44;;;;;;;12.98;5.55;;;;;;;22.81;70.40;99633.13;2066400;28;20042;-53
2022/10/27 01:06:46;;;;;;;10.93;5.10;;;;;;;22.82;70.49;99630.22;2067584;28;20081;-53
2022/10/27 01:07:48;;;;;;;10.63;5.68;;;;;;;22.81;70.47;99631.25;2066799;28;20053;-52
2022/10/27 01:08:51;;;;;;;15.98;5.70;;;;;;;22.82;70.18;99630.22;2068279;28;20128;-54
2022/10/27 01:09:52;;;;;;;13.30;5.18;;;;;;;22.82;70.48;99630.22;2067087;28;20048;-52
2022/10/27 01:10:54;;;;;;;10.73;5.07;;;;;;;22.83;70.42;99634.59;2065650;28;20049;-54
2022/10/27 01:11:55;;;;;;;14.77;5.75;;;;;;;22.84;70.44;99632.69;2067519;28;21180;-52
2022/10/27 01:12:58;;;;;;;8.23;5.18;;;;;;;22.83;70.47;99634.59;2068522;28;20077;-51
2022/10/27 01:13:59;;;;;;;11.40;4.60;;;;;;;22.83;70.42;99629.16;2073274;28;20045;-54
2022/10/27 01:15:01;;;;;;;6.60;4.82;;;;;;;22.82;70.45;99627.53;2076152;28;20051;-51
2022/10/27 01:16:13;;;;;;;9.75;4.70;;;;;;;22.83;70.39;99629.16;2071230;28;20049;-54
2022/10/27 01:17:26;;;;;;;8.57;5.00;;;;;;;22.80;70.60;99629.59;2067253;28;20448;-50
2022/10/27 01:18:35;;;;;;;6.65;4.72;;;;;;;22.79;70.47;99630.63;2068898;28;20037;-53
2022/10/27 01:20:11;;;;;;;8.23;4.75;;;;;;;22.77;70.45;99630.00;2070160;28;22012;-53
2022/10/27 01:21:49;;;;;;;8.02;4.50;;;;;;;22.72;70.82;99630.63;2065117;28;20045;-53
2022/10/27 01:22:58;;;;;;;10.07;5.00;;;;;;;22.74;70.84;99635.84;2069482;28;20053;-52
2022/10/27 01:24:26;;;;;;;9.43;4.57;;;;;;;22.74;70.50;99635.84;2068344;28;20119;-52
2022/10/27 01:26:07;;;;;;;7.97;5.47;;;;;;;22.70;70.84;99627.28;2065496;28;20099;-52
2022/10/27 01:27:36;;;;;;;6.90;4.43;;;;;;;22.70;70.95;99631.84;2072273;28;20057;-50
2022/10/27 01:29:20;;;;;;;12.75;5.45;;;;;;;22.67;71.09;99626.88;2073542;28;20057;-52
2022/10/27 01:30:22;;;;;;;10.73;5.07;;;;;;;22.71;71.33;99628.13;2034702;28;20055;-52
2022/10/27 01:31:29;;;;;;;8.90;4.85;;;;;;;22.74;71.04;99619.59;2065457;28;20051;-53
2022/10/27 01:32:37;;;;;;;8.32;4.72;;;;;;;22.75;70.98;99619.38;2070770;28;20390;-52
2022/10/27 01:33:46;;;;;;;8.40;4.05;;;;;;;22.76;70.88;99620.22;2064335;28;20081;-53
2022/10/27 01:34:52;;;;;;;9.52;5.32;;;;;;;22.76;70.71;99622.91;2072723;28;20402;-53
2022/10/27 01:35:59;;;;;;;10.65;5.18;;;;;;;22.76;71.14;99628.31;2065091;28;20103;-54
2022/10/27 01:37:09;;;;;;;7.43;4.95;;;;;;;22.78;70.85;99628.13;2067408;28;20432;-54
2022/10/27 01:38:17;;;;;;;10.18;5.53;;;;;;;22.78;71.14;99630.84;2072070;28;20040;-50
2022/10/27 01:39:26;;;;;;;9.95;5.45;;;;;;;22.78;71.05;99625.44;2072199;28;20049;-54
2022/10/27 01:40:32;;;;;;;8.05;4.65;;;;;;;22.78;71.11;99625.44;2072558;28;20057;-54
2022/10/27 01:41:40;;;;;;;10.65;4.50;;;;;;;22.78;70.92;99620.00;2071717;28;20057;-53
2022/10/27 01:42:48;;;;;;;7.63;4.78;;;;;;;22.78;70.93;99626.25;2072943;28;20084;-52
2022/10/27 01:43:54;;;;;;;7.20;4.75;;;;;;;22.76;70.82;99625.63;2074463;28;20057;-50
2022/10/27 01:44:58;;;;;;;6.90;4.10;;;;;;;22.79;70.95;99627.09;2072227;28;20439;-51
2022/10/27 01:46:02;;;;;;;7.20;4.40;;;;;;;22.80;70.89;99628.75;2069608;28;20543;-50
2022/10/27 01:47:06;;;;;;;10.75;5.90;;;;;;;22.79;70.80;99625.22;2071629;28;20049;-51
2022/10/27 01:48:09;;;;;;;7.60;4.85;;;;;;;22.79;70.81;99629.78;2070168;28;20049;-54
2022/10/27 01:49:11;;;;;;;8.18;5.65;;;;;;;22.80;70.90;99624.19;2066756;28;20045;-54
2022/10/27 01:50:16;;;;;;;9.70;4.78;;;;;;;22.80;71.08;99621.47;2068836;28;20054;-50
2022/10/27 01:51:18;;;;;;;9.82;5.35;;;;;;;22.79;70.77;99619.81;2068096;28;20052;-51
2022/10/27 01:52:43;;;;;;;10.68;5.30;;;;;;;22.77;70.91;99621.06;2071594;28;20193;-51
2022/10/27 01:53:47;;;;;;;7.22;4.43;;;;;;;22.77;71.04;99613.78;2071506;28;20543;-50
2022/10/27 01:54:48;;;;;;;9.55;5.30;;;;;;;22.78;71.01;99615.44;2067567;28;20053;-49
2022/10/27 01:56:01;;;;;;;6.18;4.32;;;;;;;22.77;70.84;99616.47;2070130;28;20445;-51
2022/10/27 01:57:16;;;;;;;9.48;3.97;;;;;;;22.75;70.89;99613.97;2065670;28;20049;-50
2022/10/27 01:58:46;;;;;;;8.52;3.95;;;;;;;22.72;70.91;99617.09;2070255;28;20663;-50
2022/10/27 01:59:58;;;;;;;10.52;4.57;;;;;;;22.73;70.82;99612.50;2074251;28;20053;-49
2022/10/27 02:01:15;;;;;;;8.10;3.95;;;;;;;22.74;70.96;99608.78;2076504;28;20056;-49
2022/10/27 02:02:25;;;;;;;8.25;4.28;;;;;;;22.72;70.76;99611.69;2069952;28;21663;-48
2022/10/27 02:03:33;;;;;;;9.30;4.60;;;;;;;22.75;70.80;99605.84;2065858;28;20041;-50
2022/10/27 02:04:42;;;;;;;11.85;5.00;;;;;;;22.77;70.71;99608.38;2069172;28;20783;-49
2022/10/27 02:05:50;;;;;;;17.20;5.28;;;;;;;22.76;70.90;99609.38;2073678;28;20466;-51
2022/10/27 02:06:58;;;;;;;12.15;5.05;;;;;;;22.75;70.66;99605.03;2068875;28;20705;-49
2022/10/27 02:08:08;;;;;;;10.45;5.28;;;;;;;22.77;70.62;99610.25;2074933;28;20048;-50
2022/10/27 02:09:13;;;;;;;14.38;4.82;;;;;;;22.76;70.75;99609.38;2072125;28;20131;-49
2022/10/27 02:10:18;;;;;;;11.43;4.93;;;;;;;22.77;70.76;99602.97;2073352;28;20050;-51
2022/10/27 02:11:18;;;;;;;9.80;4.47;;;;;;;22.77;70.55;99605.66;2069332;28;20539;-50
2022/10/27 02:12:26;;;;;;;18.63;4.95;;;;;;;22.76;70.56;99612.09;2074842;28;20045;-51
2022/10/27 02:13:28;;;;;;;7.97;4.93;;;;;;;22.77;70.63;99615.66;2072424;28;20053;-48
2022/10/27 02:14:31;;;;;;;13.98;5.30;;;;;;;22.77;70.54;99611.06;2075105;28;20053;-49
2022/10/27 02:15:35;;;;;;;8.32;5.22;;;;;;;22.77;70.55;99613.78;2067131;28;20559;-51
2022/10/27 02:16:42;;;;;;;10.82;4.60;;;;;;;22.78;70.75;99611.91;2074218;28;20105;-48
2022/10/27 02:17:48;;;;;;;17.25;5.68;;;;;;;22.77;70.51;99613.78;2068939;28;20058;-50
2022/10/27 02:18:55;;;;;;;13.63;4.35;;;;;;;22.77;70.44;99621.06;2070758;28;20042;-49
2022/10/27 02:19:57;;;;;;;8.40;4.70;;;;;;;22.77;70.36;99618.38;2065589;28;20053;-50
2022/10/27 02:21:03;;;;;;;10.20;5.03;;;;;;;22.74;70.40;99620.44;2071691;28;20521;-52
2022/10/27 02:22:04;;;;;;;13.52;5.25;;;;;;;22.75;70.24;99613.16;2072440;28;20981;-50
2022/10/27 02:23:08;;;;;;;8.35;4.72;;;;;;;22.75;70.30;99615.84;2073212;28;20060;-51
2022/10/27 02:24:09;;;;;;;7.50;4.50;;;;;;;22.76;70.35;99622.91;2074365;28;20050;-49
2022/10/27 02:25:11;;;;;;;7.80;4.63;;;;;;;22.75;70.29;99624.78;2070906;28;20058;-50
2022/10/27 02:26:21;;;;;;;6.97;4.88;;;;;;;22.75;70.13;99621.25;2076509;28;20049;-49
2022/10/27 02:27:31;;;;;;;8.07;4.85;;;;;;;22.76;70.19;99628.31;2066793;28;20136;-49
2022/10/27 02:28:36;;;;;;;10.13;4.70;;;;;;;22.75;70.33;99623.97;2071269;28;20052;-49
2022/10/27 02:29:42;;;;;;;10.00;5.03;;;;;;;22.76;70.11;99628.31;2069311;28;20056;-48
2022/10/27 02:30:43;;;;;;;8.57;4.35;;;;;;;22.74;70.21;99625.84;2071496;28;20744;-48
2022/10/27 02:31:48;;;;;;;10.60;4.60;;;;;;;22.75;70.14;99621.25;2069072;28;20921;-51
2022/10/27 02:32:50;;;;;;;11.38;4.80;;;;;;;22.74;70.34;99623.13;2070516;28;20046;-51
2022/10/27 02:33:53;;;;;;;10.30;4.80;;;;;;;22.75;70.06;99626.66;2068127;28;20049;-49
2022/10/27 02:34:54;;;;;;;9.25;4.88;;;;;;;22.75;70.07;99619.38;2070851;28;21307;-50
2022/10/27 02:35:56;;;;;;;10.50;4.80;;;;;;;22.76;70.07;99622.91;2067951;28;20064;-50
2022/10/27 02:36:57;;;;;;;7.93;4.55;;;;;;;22.76;69.95;99625.63;2067004;28;20135;-49
2022/10/27 02:37:59;;;;;;;9.00;4.43;;;;;;;22.77;69.96;99626.47;2067298;28;20054;-52
2022/10/27 02:39:00;;;;;;;7.05;4.38;;;;;;;22.75;69.88;99630.19;2068007;28;20099;-49
2022/10/27 02:40:03;;;;;;;9.13;4.65;;;;;;;22.76;69.96;99628.31;2067326;28;20098;-49
2022/10/27 02:41:04;;;;;;;7.63;3.83;;;;;;;22.76;69.83;99625.63;2065533;28;20060;-49
2022/10/27 02:42:06;;;;;;;5.63;4.68;;;;;;;22.76;69.97;99628.31;2067459;28;20059;-51
2022/10/27 02:43:06;;;;;;;8.73;4.15;;;;;;;22.76;69.86;99625.63;2067311;28;20041;-49
2022/10/27 02:44:08;;;;;;;9.68;4.07;;;;;;;22.76;69.75;99622.91;2068068;28;20059;-48
2022/10/27 02:45:09;;;;;;;10.60;4.60;;;;;;;22.76;69.71;99631.03;2065627;28;20053;-49
2022/10/27 02:46:11;;;;;;;7.18;5.00;;;;;;;22.75;69.79;99626.66;2064234;28;20050;-49
2022/10/27 02:47:12;;;;;;;7.35;5.35;;;;;;;22.76;69.89;99628.31;2068042;28;20048;-49
2022/10/27 02:48:15;;;;;;;10.90;4.75;;;;;;;22.77;69.83;99629.19;2071859;28;20083;-48
2022/10/27 02:49:16;;;;;;;10.95;4.53;;;;;;;22.76;69.74;99633.72;2067649;28;20683;-49
2022/10/27 02:50:17;;;;;;;11.05;5.32;;;;;;;22.73;69.59;99628.75;2065019;28;20042;-51
2022/10/27 02:51:18;;;;;;;9.20;4.95;;;;;;;22.73;69.93;99624.19;2066562;28;20200;-48
2022/10/27 02:52:20;;;;;;;9.50;4.47;;;;;;;22.74;69.84;99622.31;2066988;28;20050;-48
2022/10/27 02:53:21;;;;;;;11.32;5.05;;;;;;;22.75;69.76;99629.38;2066972;28;20056;-50
2022/10/27 02:54:23;;;;;;;7.63;4.53;;;;;;;22.73;69.98;99626.03;2066210;28;20050;-51
2022/10/27 02:55:23;;;;;;;12.15;5.70;;;;;;;22.74;69.71;99633.13;2066079;28;20041;-48
2022/10/27 02:56:25;;;;;;;10.50;6.03;;;;;;;22.74;69.76;99631.25;2066501;28;20054;-49
2022/10/27 02:57:26;;;;;;;9.15;5.05;;;;;;;22.74;69.71;99635.84;2065438;28;20049;-51
2022/10/27 02:58:28;;;;;;;11.15;4.80;;;;;;;22.74;69.85;99630.41;2068321;28;20049;-51
2022/10/27 02:59:28;;;;;;;15.23;5.13;;;;;;;22.75;69.65;99629.38;2064426;28;20049;-49
2022/10/27 03:00:30;;;;;;;6.72;4.63;;;;;;;22.73;69.86;99623.34;2067361;28;20046;-50
2022/10/27 03:01:31;;;;;;;11.10;4.00;;;;;;;22.74;69.77;99625.00;2065240;28;20057;-50
2022/10/27 03:02:33;;;;;;;6.07;4.38;;;;;;;22.74;69.74;99625.84;2066802;28;20046;-49
2022/10/27 03:03:35;;;;;;;10.32;5.15;;;;;;;22.74;69.79;99633.13;2070303;28;20045;-52
2022/10/27 03:04:37;;;;;;;8.23;5.13;;;;;;;22.74;69.64;99630.41;2065265;28;20489;-50
2022/10/27 03:05:37;;;;;;;8.63;5.35;;;;;;;22.75;69.54;99632.06;2067478;28;20060;-49
2022/10/27 03:06:39;;;;;;;6.00;4.45;;;;;;;22.73;69.69;99635.00;2067230;28;20041;-50
2022/10/27 03:07:42;;;;;;;8.50;4.55;;;;;;;22.75;69.72;99634.78;2065801;28;20064;-50
2022/10/27 03:08:43;;;;;;;6.43;4.60;;;;;;;22.73;69.77;99634.16;2063908;28;20132;-50
2022/10/27 03:09:44;;;;;;;8.30;4.60;;;;;;;22.74;69.57;99643.94;2067528;28;20061;-49
2022/10/27 03:10:46;;;;;;;8.32;4.70;;;;;;;22.73;69.69;99639.56;2066729;28;20056;-49
2022/10/27 03:11:47;;;;;;;7.38;4.32;;;;;;;22.72;69.77;99638.72;2068311;28;20053;-51
2022/10/27 03:12:48;;;;;;;11.23;4.63;;;;;;;22.73;70.00;99635.00;2064829;28;20041;-49
2022/10/27 03:13:49;;;;;;;10.55;3.90;;;;;;;22.72;69.74;99637.91;2068319;28;20502;-49
2022/10/27 03:14:51;;;;;;;14.60;4.80;;;;;;;22.72;69.79;99632.50;2075849;28;20061;-48
2022/10/27 03:15:52;;;;;;;10.40;4.35;;;;;;;22.71;70.08;99636.25;2073775;28;20049;-48
2022/10/27 03:16:53;;;;;;;15.25;4.65;;;;;;;22.72;69.76;99640.59;2068142;28;20128;-49
2022/10/27 03:17:54;;;;;;;11.40;5.40;;;;;;;22.71;69.75;99642.47;2066935;28;20050;-49
2022/10/27 03:18:57;;;;;;;9.07;4.63;;;;;;;22.73;69.48;99647.66;2067449;28;21073;-49
2022/10/27 03:19:58;;;;;;;7.32;4.82;;;;;;;22.72;69.76;99640.59;2068414;28;20061;-50
2022/10/27 03:21:00;;;;;;;6.10;4.38;;;;;;;22.73;69.78;99647.66;2066371;28;20056;-49
2022/10/27 03:22:01;;;;;;;7.63;4.05;;;;;;;22.72;69.51;99646.00;2066141;28;20418;-52
2022/10/27 03:23:02;;;;;;;;;;;;;;;22.63;69.76;99644.56;2067415;28;20053;-51
2022/10/27 03:24:03;;;;;;;;;;;;;;;22.54;69.98;99652.03;2067576;28;19929;-49
2022/10/27 03:25:05;;;;;;;7.25;5.10;;;;;;;22.59;70.19;99648.69;2066369;28;19952;-50
2022/10/27 03:26:06;;;;;;;9.18;4.25;;;;;;;22.62;69.81;99641.03;2068019;28;20405;-51
2022/10/27 03:27:08;;;;;;;8.50;5.20;;;;;;;22.66;69.70;99636.03;2067529;28;20041;-52
2022/10/27 03:28:09;;;;;;;6.65;5.03;;;;;;;22.67;69.85;99641.22;2068737;28;20049;-49
2022/10/27 03:29:11;;;;;;;10.40;4.80;;;;;;;22.67;69.64;99641.22;2068038;28;20056;-51
2022/10/27 03:30:13;;;;;;;7.82;3.80;;;;;;;22.69;69.55;99638.31;2067519;28;20068;-51
2022/10/27 03:31:15;;;;;;;13.70;4.93;;;;;;;22.69;69.50;99641.03;2066873;28;20099;-51
2022/10/27 03:32:16;;;;;;;4.88;3.90;;;;;;;22.70;69.60;99639.97;2072020;28;20049;-49
2022/10/27 03:33:18;;;;;;;6.80;3.70;;;;;;;22.68;69.61;99629.38;2070534;28;20088;-49
2022/10/27 03:34:20;;;;;;;8.40;4.32;;;;;;;22.71;69.47;99630.84;2068552;28;20053;-49
2022/10/27 03:35:22;;;;;;;10.00;5.00;;;;;;;22.69;69.49;99636.44;2069062;28;20054;-50
2022/10/27 03:36:23;;;;;;;12.13;4.38;;;;;;;22.71;69.49;99636.25;2068220;28;20469;-49
2022/10/27 03:37:24;;;;;;;6.07;3.85;;;;;;;22.69;69.50;99631.03;2067497;28;20053;-49
2022/10/27 03:38:26;;;;;;;7.55;3.53;;;;;;;22.69;69.50;99636.44;2064569;28;22404;-48
2022/10/27 03:39:27;;;;;;;8.25;4.80;;;;;;;22.70;69.64;99639.97;2066305;28;20046;-49
2022/10/27 03:40:30;;;;;;;11.75;4.78;;;;;;;22.70;69.50;99637.28;2066671;28;20854;-49
2022/10/27 03:41:30;;;;;;;8.90;4.55;;;;;;;22.69;69.61;99632.91;2063361;28;20068;-50
2022/10/27 03:42:32;;;;;;;13.45;6.68;;;;;;;22.68;69.26;99636.66;2066759;28;20484;-47
2022/10/27 03:43:33;;;;;;;8.02;3.90;;;;;;;22.68;69.38;99640.19;2066652;28;20080;-48
2022/10/27 03:44:35;;;;;;;6.03;3.67;;;;;;;22.69;69.42;99643.72;2067370;28;20119;-48
2022/10/27 03:45:36;;;;;;;7.15;4.68;;;;;;;22.68;69.42;99642.06;2065324;28;20049;-49
2022/10/27 03:46:37;;;;;;;4.72;3.88;;;;;;;22.67;69.59;99643.91;2066774;28;20145;-47
2022/10/27 03:47:38;;;;;;;9.00;4.40;;;;;;;22.68;69.54;99650.19;2066021;28;20060;-48
2022/10/27 03:48:40;;;;;;;11.93;4.75;;;;;;;22.66;69.53;99647.66;2067475;28;20080;-49
2022/10/27 03:49:42;;;;;;;6.97;4.47;;;;;;;22.69;69.36;99646.44;2068075;28;20042;-51
2022/10/27 03:50:46;;;;;;;9.48;5.45;;;;;;;22.69;69.47;99654.53;2069141;28;22050;-51
2022/10/27 03:51:47;;;;;;;12.65;5.22;;;;;;;22.68;69.56;99645.59;2065614;28;20128;-50
2022/10/27 03:52:49;;;;;;;6.95;4.45;;;;;;;22.68;69.48;99645.59;2067107;28;20532;-51
2022/10/27 03:53:49;;;;;;;7.03;3.90;;;;;;;22.66;69.49;99639.56;2067156;28;20065;-48
2022/10/27 03:54:51;;;;;;;8.43;4.47;;;;;;;22.67;69.36;99643.09;2064353;28;20820;-50
2022/10/27 03:55:52;;;;;;;7.90;4.05;;;;;;;22.66;69.37;99638.72;2067193;28;20049;-49
2022/10/27 03:56:54;;;;;;;13.50;4.57;;;;;;;22.67;69.40;99641.22;2065852;28;20059;-49
2022/10/27 03:57:55;;;;;;;9.40;4.35;;;;;;;22.68;69.38;99644.78;2065140;28;20061;-49
2022/10/27 03:58:57;;;;;;;7.10;3.88;;;;;;;22.68;69.32;99647.47;2065301;28;20041;-48
2022/10/27 03:59:57;;;;;;;5.75;4.03;;;;;;;22.69;69.31;99649.13;2067582;28;20060;-52
2022/10/27 04:01:03;;;;;;;9.77;4.68;;;;;;;22.67;69.11;99640.38;2067812;28;20503;-52
2022/10/27 04:02:04;;;;;;;7.75;4.95;;;;;;;22.66;69.34;99650.38;2067084;28;20049;-49
2022/10/27 04:03:06;;;;;;;7.82;5.10;;;;;;;22.67;69.26;99648.50;2067383;28;20446;-48
2022/10/27 04:04:10;;;;;;;6.07;3.60;;;;;;;22.66;69.38;99655.78;2065954;28;20042;-49
2022/10/27 04:05:13;;;;;;;6.45;3.90;;;;;;;22.67;69.31;99648.50;2066693;28;20452;-49
2022/10/27 04:06:14;;;;;;;8.48;4.70;;;;;;;22.66;69.33;99644.13;2068789;28;20041;-50
2022/10/27 04:07:16;;;;;;;8.73;4.78;;;;;;;22.65;69.21;99643.31;2068537;28;20050;-49
2022/10/27 04:08:16;;;;;;;7.80;4.38;;;;;;;22.65;69.37;99637.91;2064665;28;20049;-48
2022/10/27 04:09:18;;;;;;;6.63;4.30;;;;;;;22.66;69.32;99650.38;2066211;28;20048;-48
2022/10/27 04:10:19;;;;;;;9.15;5.22;;;;;;;22.66;69.25;99647.66;2069063;28;20045;-48
2022/10/27 04:11:21;;;;;;;9.43;4.35;;;;;;;22.66;69.16;99649.53;2063031;28;20045;-49
2022/10/27 04:12:22;;;;;;;5.03;3.88;;;;;;;22.66;69.11;99649.53;2066939;28;20049;-49
2022/10/27 04:13:23;;;;;;;;;;;;;;;22.56;69.50;99654.50;2064719;28;20045;-48
2022/10/27 04:14:24;;;;;;;;;;;;;;;22.47;69.86;99653.88;2065122;28;19925;-48
2022/10/27 04:15:27;;;;;;;8.20;4.60;;;;;;;22.52;69.68;99652.22;2066837;28;20182;-48
2022/10/27 04:16:28;;;;;;;6.38;4.22;;;;;;;22.57;69.43;99653.50;2068793;28;20280;-45
2022/10/27 04:17:29;;;;;;;9.60;4.68;;;;;;;22.61;69.23;99660.97;2065813;28;20512;-46
2022/10/27 04:18:30;;;;;;;7.75;4.25;;;;;;;22.63;69.12;99653.50;2064676;28;20045;-47
2022/10/27 04:19:32;;;;;;;10.50;4.60;;;;;;;22.65;69.27;99658.69;2057068;28;20049;-49
2022/10/27 04:20:35;;;;;;;8.65;4.45;;;;;;;22.66;69.27;99658.50;2066810;28;21344;-48
2022/10/27 04:21:36;;;;;;;7.25;4.72;;;;;;;22.66;69.19;99661.19;2061106;28;20065;-48
2022/10/27 04:22:38;;;;;;;8.50;3.95;;;;;;;22.65;69.17;99659.53;2067853;28;20143;-49
2022/10/27 04:23:39;;;;;;;7.55;3.90;;;;;;;22.65;69.29;99659.53;2066321;28;20095;-47
2022/10/27 04:24:41;;;;;;;4.82;3.70;;;;;;;22.64;69.12;99662.44;2069923;28;20493;-48
2022/10/27 04:25:43;;;;;;;5.68;4.07;;;;;;;22.63;69.15;99661.59;2065723;28;20050;-46
2022/10/27 04:26:45;;;;;;;6.60;4.45;;;;;;;22.62;69.10;99667.22;2072535;28;20688;-47
2022/10/27 04:27:45;;;;;;;10.57;4.43;;;;;;;22.62;69.01;99661.78;2069210;28;20049;-48
2022/10/27 04:28:47;;;;;;;8.95;4.68;;;;;;;22.62;69.34;99665.34;2072882;28;20588;-47
2022/10/27 04:29:48;;;;;;;9.63;4.57;;;;;;;22.63;69.03;99661.59;2071624;28;20045;-47
2022/10/27 04:30:50;;;;;;;8.35;4.22;;;;;;;22.62;69.21;99664.50;2070844;28;20333;-46
2022/10/27 04:31:51;;;;;;;8.13;4.18;;;;;;;22.62;68.98;99667.22;2068309;28;20928;-47
2022/10/27 04:32:53;;;;;;;9.75;4.18;;;;;;;22.62;69.01;99656.38;2065613;28;20052;-47
2022/10/27 04:33:55;;;;;;;8.15;4.60;;;;;;;22.62;69.07;99664.50;2064273;28;20050;-49
2022/10/27 04:34:55;;;;;;;11.48;4.65;;;;;;;22.60;69.04;99662.03;2071516;28;20045;-46
2022/10/27 04:35:59;;;;;;;7.45;4.75;;;;;;;22.61;68.98;99663.69;2068574;28;20064;-48
2022/10/27 04:36:59;;;;;;;6.63;3.80;;;;;;;22.62;68.96;99661.78;2062695;28;20485;-45
2022/10/27 04:38:01;;;;;;;8.80;4.43;;;;;;;22.61;69.05;99660.97;2064997;28;20049;-46
2022/10/27 04:39:02;;;;;;;5.57;3.70;;;;;;;22.64;68.96;99667.84;2066707;28;20057;-46
2022/10/27 04:40:04;;;;;;;12.10;3.78;;;;;;;22.68;68.97;99663.72;2065732;28;20053;-46
2022/10/27 04:41:05;;;;;;;12.05;4.72;;;;;;;22.71;68.94;99668.69;2068019;28;20045;-48
2022/10/27 04:42:07;;;;;;;15.23;4.85;;;;;;;22.70;69.04;99672.41;2069379;28;20051;-46
2022/10/27 04:43:08;;;;;;;16.30;5.05;;;;;;;22.73;69.09;99672.88;2067846;28;20049;-52
2022/10/27 04:44:10;;;;;;;14.60;5.25;;;;;;;22.70;69.31;99672.41;2064798;28;20057;-49
2022/10/27 04:45:11;;;;;;;15.13;5.55;;;;;;;22.70;69.14;99672.41;2069898;28;20060;-48
2022/10/27 04:46:13;;;;;;;;;;;;;;;22.61;69.35;99670.97;2072933;28;20049;-46
2022/10/27 04:47:14;;;;;;;14.73;4.95;;;;;;;22.62;69.31;99670.78;2064450;28;19929;-49
2022/10/27 04:48:16;;;;;;;15.50;4.55;;;;;;;22.63;69.29;99667.00;2067178;28;20053;-47
2022/10/27 04:49:17;;;;;;;17.00;5.82;;;;;;;22.64;69.24;99665.13;2063339;28;20045;-48
2022/10/27 04:50:19;;;;;;;9.48;4.90;;;;;;;22.65;69.24;99672.19;2066436;28;20053;-49
2022/10/27 04:51:21;;;;;;;13.35;5.65;;;;;;;22.65;69.24;99669.50;2063125;28;20061;-46
2022/10/27 04:52:22;;;;;;;8.55;4.78;;;;;;;22.63;69.32;99668.88;2064024;28;20589;-47
2022/10/27 04:53:23;;;;;;;16.17;4.80;;;;;;;22.62;69.18;99667.22;2063672;28;20053;-46
2022/10/27 04:54:25;;;;;;;11.45;4.50;;;;;;;22.63;69.16;99666.19;2065266;28;20051;-48
2022/10/27 04:55:27;;;;;;;8.73;4.60;;;;;;;22.63;69.24;99666.19;2061802;28;20054;-47
2022/10/27 04:56:29;;;;;;;14.95;6.22;;;;;;;22.61;69.14;99665.56;2067131;28;20103;-48
2022/10/27 04:57:30;;;;;;;16.88;5.45;;;;;;;22.61;69.16;99668.25;2063515;28;20825;-54
2022/10/27 04:58:32;;;;;;;17.73;5.80;;;;;;;22.61;69.05;99668.25;2065368;28;20052;-47